Latest Weather Observations for Murrurundi Gap

IDN60801

Issued at 11:32 am EDT Sunday 29 March 2015 (issued every 30 minutes, with the page automatically refreshed every 10 minutes)

About weather observations | Map of weather stations | Latest weather observations for NSW | Other Formats
Station Details ID: 061392 Name: MURRURUNDI GAP AWS Lat: -31.74 Lon: 150.79 Height: 729.4 m
Data from the previous 72 hours. | See also: Recent months for locations in New South Wales
Date/Time
EDT
Temp
°C
App
Temp
°C
Dew
Point
Rel
Hum
%
Delta-T
°C
Wind Press
QNH
hPa
Press
MSL
hPa
Rain
since 9 am
mm
Dir
 
Spd
km/h
Gust
km/h
Spd
kts
Gust
kts
29/11:30am 20.5 15.8 9.1 48 6.2 NNW 24 35 13 19 1024.9 1021.8 0.0
29/11:00am 20.6 16.6 9.2 48 6.2 NNW 20 32 11 17 1025.0 1021.9 0.0
29/10:30am 19.8 16.8 9.1 50 5.8 NW 15 20 8 11 1024.9 1021.8 0.0
29/10:00am 19.5 16.2 9.4 52 5.5 NW 17 24 9 13 1024.9 1021.8 0.0
29/09:30am 18.4 14.9 8.7 53 5.2 NNW 17 22 9 12 1025.1 1022.0 0.0
29/09:00am 17.2 16.3 9.1 59 4.3 ENE 4 9 2 5 1025.0 1021.9 0.0
29/08:30am 15.5 14.9 10.5 72 2.7 ESE 4 9 2 5 1024.6 1021.5 0.0
29/08:00am 13.8 12.1 10.0 78 2.0 ESE 9 9 5 5 1024.0 1021.0 0.0
29/07:30am 12.2 10.2 10.3 88 1.0 ESE 11 17 6 9 1023.7 1020.6 0.0
29/07:00am 10.4 7.2 9.8 96 0.3 SE 17 19 9 10 1023.1 1020.0 0.0
29/06:30am 10.5 7.1 9.3 92 0.6 ESE 17 20 9 11 1022.7 1019.7 0.0
29/05:30am 10.5 6.3 8.4 87 1.1 SE 20 22 11 12 1022.5 1019.4 0.0
29/05:00am 12.1 8.1 8.9 81 1.7 SE 20 22 11 12 1022.3 1019.2 0.0
29/04:30am 11.6 7.5 8.8 83 1.4 SE 20 22 11 12 1022.3 1019.2 0.0
29/04:00am 11.7 7.6 8.7 82 1.5 SE 20 24 11 13 1022.1 1019.0 0.0
29/03:30am 12.2 8.1 8.7 79 1.8 SE 20 24 11 13 1022.2 1019.1 0.0
29/03:00am 13.0 8.9 8.7 75 2.2 SE 20 24 11 13 1022.4 1019.3 0.0
29/02:30am 13.1 9.0 8.6 74 2.3 ESE 20 20 11 11 1022.7 1019.7 0.0
29/02:00am 12.9 8.9 9.0 77 2.0 ESE 20 24 11 13 1022.8 1019.8 0.0
29/01:30am 13.2 9.1 8.5 73 2.4 ESE 20 22 11 12 1022.9 1019.9 0.0
29/01:00am 13.0 8.8 7.5 69 2.8 ESE 19 22 10 12 1023.1 1020.0 0.0
29/12:30am 14.3 9.0 8.5 68 3.0 SE 26 32 14 17 1022.9 1019.9 0.0
29/12:00am 14.3 9.0 6.9 61 3.7 SE 24 30 13 16 1023.0 1020.0 0.0
 
Date/Time
EDT
Temp
°C
App
Temp
°C
Dew
Point
Rel
Hum
%
Delta-T
°C
Wind Press
QNH
hPa
Press
MSL
hPa
Rain
since 9 am
mm
Dir
 
Spd
km/h
Gust
km/h
Spd
kts
Gust
kts
28/11:30pm 13.7 8.1 5.6 58 4.0 ESE 24 26 13 14 1023.3 1020.2 0.0
28/11:00pm 14.1 8.9 5.5 56 4.2 ESE 22 28 12 15 1023.5 1020.4 0.0
28/10:30pm 14.4 9.2 5.7 56 4.3 SE 22 26 12 14 1023.4 1020.3 0.0
28/10:00pm 16.0 10.9 6.2 52 4.9 SE 22 28 12 15 1023.6 1020.5 0.0
28/09:30pm 16.6 11.1 6.1 50 5.3 SE 24 30 13 16 1023.4 1020.3 0.0
28/09:00pm 17.2 10.8 5.2 45 6.0 SE 28 32 15 17 1023.1 1020.0 0.0
28/08:30pm 17.3 11.5 4.6 43 6.3 SE 24 32 13 17 1022.8 1019.8 0.0
28/08:00pm 17.7 12.4 2.8 37 7.1 SE 20 30 11 16 1022.5 1019.4 0.0
28/07:30pm 18.5 12.6 1.5 32 8.0 SSE 22 30 12 16 1022.1 1019.0 0.0
28/07:00pm 19.0 13.5 0.6 29 8.5 SSE 19 24 10 13 1021.9 1018.8 0.0
28/06:30pm 19.5 14.4 0.5 28 8.8 SE 17 22 9 12 1021.5 1018.5 0.0
28/05:30pm 21.3 15.7 1.0 26 9.6 SE 20 26 11 14 1021.4 1018.3 0.0
28/05:00pm 21.9 17.0 2.1 27 9.6 SE 17 24 9 13 1021.3 1018.2 0.0
28/04:30pm 22.5 17.4 3.1 28 9.6 SE 19 26 10 14 1021.3 1018.2 0.0
28/04:00pm 22.5 17.4 3.1 28 9.6 ESE 19 24 10 13 1021.4 1018.3 0.0
28/03:30pm 23.9 19.9 2.7 25 10.6 SSE 13 24 7 13 1021.7 1018.6 0.0
28/03:00pm 23.6 19.4 1.9 24 10.6 SE 13 22 7 12 1021.8 1018.7 0.0
28/02:30pm 24.8 21.4 1.7 22 11.4 ESE 9 24 5 13 1022.1 1019.0 0.0
28/02:00pm 24.3 20.3 0.6 21 11.3 ESE 11 17 6 9 1022.3 1019.2 0.0
28/01:30pm 23.1 19.1 -2.5 18 11.5 NW 9 19 5 10 1022.7 1019.7 0.0
28/01:00pm 21.6 17.6 0.8 25 9.8 ESE 11 22 6 12 1023.2 1020.1 0.0
28/12:30pm 21.1 17.8 2.4 29 9.1 ENE 9 17 5 9 1023.6 1020.5 0.0
28/12:00pm 20.0 15.2 2.4 31 8.4 E 17 22 9 12 1023.9 1020.8 0.0
28/11:30am 18.3 13.0 1.8 33 7.8 ESE 19 24 10 13 1024.1 1021.1 0.0
28/11:00am 17.3 12.0 1.7 35 7.2 ESE 19 24 10 13 1024.2 1021.2 0.0
28/10:30am 17.1 12.1 3.4 40 6.6 ESE 19 26 10 14 1024.4 1021.4 0.0
28/10:00am 15.7 9.9 2.5 41 6.1 ESE 22 28 12 15 1024.3 1021.3 0.0
28/09:30am 15.5 9.9 3.6 45 5.7 ESE 22 28 12 15 1024.2 1021.2 0.0
28/09:00am 14.6 9.7 4.0 49 5.0 ESE 19 22 10 12 1024.0 1021.0 0.0
28/08:30am 12.3 7.6 3.0 53 4.3 ESE 17 22 9 12 1023.8 1020.7 0.0
28/08:00am 11.0 5.9 3.1 58 3.6 ESE 19 22 10 12 1023.4 1020.3 0.0
28/07:30am 10.7 5.6 2.8 58 3.6 ESE 19 20 10 11 1023.2 1020.1 0.0
28/07:00am 10.2 5.4 2.6 59 3.4 SE 17 20 9 11 1022.8 1019.8 0.0
28/06:30am 10.2 5.3 2.3 58 3.5 SE 17 19 9 10 1022.4 1019.3 0.0
28/06:00am 10.8 5.5 2.1 55 3.9 SE 19 20 10 11 1022.1 1019.0 0.0
28/05:30am 11.0 6.1 2.1 54 4.0 SE 17 20 9 11 1022.0 1018.9 0.0
28/05:00am 11.0 6.1 2.1 54 3.9 SE 17 20 9 11 1021.8 1018.7 0.0
28/04:30am 11.3 6.0 2.1 53 4.1 SE 19 24 10 13 1021.5 1018.5 0.0
28/04:00am 10.9 6.0 1.7 53 4.0 SE 17 20 9 11 1021.7 1018.6 0.0
28/03:30am 13.0 7.9 2.8 50 4.7 ESE 19 20 10 11 1021.9 1018.8 0.0
28/03:00am 12.8 8.0 2.6 50 4.6 SE 17 19 9 10 1022.0 1018.9 0.0
28/02:30am 13.2 8.3 2.1 47 5.0 ESE 17 20 9 11 1022.1 1019.0 0.0
28/02:00am 13.7 8.6 1.0 42 5.6 SE 17 22 9 12 1022.3 1019.2 0.0
28/01:30am 14.0 9.4 1.3 42 5.7 ESE 15 19 8 10 1022.4 1019.3 0.0
28/01:00am 14.6 10.2 0.5 38 6.2 ESE 13 17 7 9 1022.3 1019.2 0.0
28/12:30am 15.2 10.0 0.2 36 6.7 ESE 17 22 9 12 1022.4 1019.3 0.0
28/12:00am 14.8 10.7 -0.5 35 6.6 ESE 11 15 6 8 1022.5 1019.4 0.0
 
Date/Time
EDT
Temp
°C
App
Temp
°C
Dew
Point
Rel
Hum
%
Delta-T
°C
Wind Press
QNH
hPa
Press
MSL
hPa
Rain
since 9 am
mm
Dir
 
Spd
km/h
Gust
km/h
Spd
kts
Gust
kts
27/11:30pm 16.1 12.7 -0.6 32 7.3 ENE 7 11 4 6 1022.5 1019.4 0.0
27/11:00pm 16.3 13.1 -0.8 31 7.5 ESE 6 11 3 6 1022.5 1019.4 0.0
27/10:30pm 16.6 14.1 -1.0 30 7.7 WSW 2 7 1 4 1022.6 1019.5 0.0
27/10:00pm 17.2 13.9 -1.0 29 8.0 NNW 6 9 3 5 1022.5 1019.4 0.0
27/09:30pm 17.1 15.0 -1.1 29 8.0 CALM 0 7 0 4 1022.4 1019.3 0.0
27/09:00pm 17.0 13.5 -1.1 29 7.9 SE 7 11 4 6 1022.2 1019.1 0.0
27/08:30pm 18.3 12.9 -1.0 27 8.6 W 17 22 9 12 1021.9 1018.8 0.0
27/08:00pm 18.6 13.2 -1.3 26 8.8 WSW 17 22 9 12 1021.5 1018.5 0.0
27/07:30pm 18.8 13.7 -2.2 24 9.1 W 15 20 8 11 1021.1 1018.0 0.0
27/07:00pm 19.7 15.2 -3.2 21 9.8 W 11 15 6 8 1021.0 1017.9 0.0
27/06:30pm 21.3 16.7 -4.0 18 10.9 W 11 22 6 12 1020.7 1017.6 0.0
27/06:00pm 21.9 16.1 -4.2 17 11.2 W 17 24 9 13 1020.5 1017.4 0.0
27/05:30pm 22.5 15.9 -3.7 17 11.4 W 22 32 12 17 1020.2 1017.0 0.0
27/05:00pm 22.9 16.6 -4.2 16 11.7 WNW 20 30 11 16 1020.2 1017.0 0.0
27/04:30pm 23.1 16.9 -3.3 17 11.7 W 20 32 11 17 1020.3 1017.2 0.0
27/04:00pm 22.9 16.7 -3.4 17 11.6 WNW 20 28 11 15 1020.4 1017.3 0.0
27/03:30pm 23.4 17.8 -3.0 17 11.8 WNW 17 32 9 17 1020.8 1017.7 0.0
27/03:00pm 22.9 16.1 -5.1 15 11.9 WNW 22 35 12 19 1021.1 1018.0 0.0
27/02:30pm 22.7 16.0 -4.4 16 11.7 WNW 22 41 12 22 1021.3 1018.2 0.0
27/02:00pm 21.3 14.2 -4.0 18 10.8 WNW 24 37 13 20 1021.5 1018.5 0.0
27/01:30pm 21.3 14.9 -1.9 21 10.4 WNW 22 33 12 18 1021.9 1018.8 0.0
27/01:00pm 20.7 15.2 -2.4 21 10.1 NNW 17 28 9 15 1022.4 1019.3 0.0
27/12:30pm 19.7 14.4 -3.2 21 9.9 WNW 15 22 8 12 1022.8 1019.8 0.0
27/12:00pm 19.0 13.6 -4.4 20 9.7 WNW 15 24 8 13 1023.3 1020.2 0.0
27/11:30am 17.8 12.7 -5.4 20 9.4 NNW 13 26 7 14 1023.5 1020.4 0.0
27/11:00am 17.0 13.0 -2.6 26 8.3 SE 9 19 5 10 1023.6 1020.5 0.0
27/10:30am 15.7 10.9 -2.3 29 7.6 SE 13 17 7 9 1023.7 1020.6 0.0
27/10:00am 14.7 10.0 -1.8 32 6.9 ESE 13 19 7 10 1023.9 1020.8 0.0
27/09:30am 12.6 7.7 -0.6 40 5.6 SE 15 19 8 10 1023.6 1020.5 0.0
27/09:00am 11.0 6.4 1.5 52 4.2 ESE 15 19 8 10 1023.5 1020.4 0.0
27/08:30am 10.6 6.4 1.9 55 3.8 ESE 13 17 7 9 1023.2 1020.1 0.0
27/08:00am 10.0 5.6 2.8 61 3.2 SE 15 17 8 9 1023.1 1020.0 0.0
27/07:30am 8.7 3.3 1.4 60 3.1 SE 19 20 10 11 1022.6 1019.5 0.0
27/07:00am 8.2 3.3 2.2 66 2.6 SE 17 19 9 10 1022.4 1019.3 0.0
27/06:30am 8.2 3.4 2.4 67 2.5 SE 17 19 9 10 1022.0 1018.9 0.0
27/06:00am 9.3 4.1 2.4 62 3.0 SE 19 20 10 11 1021.8 1018.7 0.0
27/05:30am 9.7 4.5 2.6 61 3.2 SE 19 19 10 10 1021.5 1018.5 0.0
27/05:00am 10.2 5.4 2.8 60 3.3 SE 17 19 9 10 1021.4 1018.3 0.0
27/04:30am 10.8 6.1 2.9 58 3.6 SE 17 19 9 10 1021.5 1018.5 0.0
27/04:00am 11.6 6.8 2.6 54 4.1 SE 17 20 9 11 1021.5 1018.5 0.0
27/03:30am 12.1 7.3 2.6 52 4.3 ESE 17 20 9 11 1021.7 1018.6 0.0
27/03:00am 12.4 7.6 2.8 52 4.4 ESE 17 20 9 11 1022.0 1018.9 0.0
27/02:30am 12.9 8.6 3.0 51 4.6 SE 15 20 8 11 1022.1 1019.0 0.0
27/02:00am 12.8 8.8 2.9 51 4.5 ESE 13 19 7 10 1022.3 1019.2 0.0
27/01:30am 13.3 8.5 2.5 48 4.9 ESE 17 22 9 12 1022.1 1019.0 0.0
27/01:00am 14.3 9.4 1.9 43 5.6 ESE 17 19 9 10 1022.1 1019.0 0.0
27/12:30am 14.7 10.4 1.3 40 6.1 ESE 13 19 7 10 1022.1 1019.0 0.0
27/12:00am 15.6 10.9 1.0 37 6.6 ESE 15 20 8 11 1022.2 1019.1 0.0
 
Date/Time
EDT
Temp
°C
App
Temp
°C
Dew
Point
Rel
Hum
%
Delta-T
°C
Wind Press
QNH
hPa
Press
MSL
hPa
Rain
since 9 am
mm
Dir
 
Spd
km/h
Gust
km/h
Spd
kts
Gust
kts
26/11:30pm 15.7 11.0 1.1 37 6.6 ESE 15 19 8 10 1022.0 1018.9 0.0
26/11:00pm 16.1 11.8 1.0 36 6.8 ESE 13 17 7 9 1022.1 1019.0 0.0
26/10:30pm 16.8 12.0 0.5 33 7.4 ESE 15 19 8 10 1022.1 1019.0 0.0
26/10:00pm 17.1 12.7 0.3 32 7.6 SE 13 17 7 9 1021.8 1018.7 0.0
26/09:30pm 17.2 12.5 0.8 33 7.5 SE 15 20 8 11 1021.7 1018.6 0.0
26/09:00pm 17.8 14.0 1.7 34 7.5 SE 11 13 6 7 1021.3 1018.2 0.0
26/08:30pm 18.1 14.0 2.4 35 7.5 E 13 17 7 9 1020.8 1017.7 0.0
26/08:00pm 19.0 16.0 2.0 32 8.0 ENE 7 9 4 5 1020.4 1017.3 0.0
26/07:30pm 20.1 16.3 1.5 29 8.8 W 11 17 6 9 1019.9 1016.8 0.0
26/07:00pm 21.4 15.6 0.0 24 9.9 WNW 20 30 11 16 1019.4 1016.3 0.0
26/06:30pm 22.5 14.9 0.4 23 10.4 NW 30 39 16 21 1019.1 1016.0 0.0
26/06:00pm 23.1 14.5 0.2 22 10.8 NW 35 44 19 24 1018.7 1015.5 0.0
26/05:30pm 24.2 16.2 1.8 23 11.0 WNW 33 50 18 27 1018.4 1015.3 0.0
26/05:00pm 24.0 15.3 -0.3 20 11.4 NW 35 46 19 25 1018.1 1015.0 0.0
26/04:30pm 23.7 14.2 -0.6 20 11.4 NW 39 50 21 27 1018.0 1014.9 0.0
26/04:03pm 24.0 15.5 -1.8 18 11.8 NW 33 52 18 28 1018.3 1015.2 0.0
26/04:00pm 24.5 16.3 0.1 20 11.6 NW 33 44 18 24 1018.3 1015.2 0.0
26/03:30pm 23.9 15.5 -1.1 19 11.6 NW 33 52 18 28 1018.4 1015.3 0.0
26/03:19pm 23.7 14.7 -2.8 17 11.9 NW 35 54 19 29 1018.5 1015.4 0.0
26/03:00pm 23.6 15.3 0.0 21 11.1 NW 33 46 18 25 1018.9 1015.7 0.0
26/02:49pm 24.0 15.7 -0.3 20 11.5 NNW 33 52 18 28 1018.9 1015.7 0.0
26/02:30pm 23.3 14.7 0.4 22 10.9 NW 35 50 19 27 1018.9 1015.7 0.0
26/02:14pm 23.0 13.9 -0.5 21 11.0 NW 37 56 20 30 1019.0 1015.8 0.0
26/02:00pm 23.0 13.6 0.2 22 10.7 NW 39 56 21 30 1019.2 1016.1 0.0
26/01:30pm 22.1 13.8 -0.6 22 10.5 NW 33 56 18 30 1019.6 1016.5 0.0
26/01:24pm 21.8 13.4 -0.8 22 10.4 NW 33 56 18 30 1019.6 1016.5 0.0
26/01:00pm 21.8 13.5 -0.2 23 10.2 WNW 33 46 18 25 1020.0 1016.9 0.0
26/12:30pm 21.6 14.4 0.8 25 9.8 NW 28 39 15 21 1020.6 1017.5 0.0
26/12:00pm 20.6 13.4 1.0 27 9.2 NW 28 41 15 22 1020.8 1017.7 0.0

Other Formats:

Comma delimited format used in spreadsheet applications
http://www.bom.gov.au/fwo/IDN60801/IDN60801.95747.axf

JavaScript Object Notation format (JSON) in row-major order
http://www.bom.gov.au/fwo/IDN60801/IDN60801.95747.json